Time;durP1;ratioP1;P1;durP2;ratioP2;P2;SDS_P1;SDS_P2;PMS_P1;PMS_P2;Temp;Humidity;BMP_temperature;BMP_pressure;BME280_temperature;BME280_humidity;BME280_pressure;Samples;Min_cycle;Max_cycle;Signal;HPM_P1;HPM_P2
2023/10/11 00:02:59;;;;;;;8.57;3.28;;;23.30;92.60;;;;;;5091105;28;20055;-71
2023/10/11 00:05:36;;;;;;;11.05;3.22;;;23.50;92.30;;;;;;5090859;28;20024;-71
2023/10/11 00:08:03;;;;;;;11.45;3.63;;;23.50;92.50;;;;;;5090716;28;20070;-71
2023/10/11 00:10:30;;;;;;;8.05;3.17;;;23.50;92.90;;;;;;5090581;28;20472;-72
2023/10/11 00:12:58;;;;;;;11.15;3.63;;;23.50;92.30;;;;;;5090538;28;20099;-71
2023/10/11 00:15:35;;;;;;;11.23;3.92;;;23.50;92.40;;;;;;5090231;28;20107;-72
2023/10/11 00:18:02;;;;;;;11.00;3.75;;;23.50;92.40;;;;;;5090279;28;20048;-71
2023/10/11 00:20:31;;;;;;;13.50;4.18;;;23.40;92.50;;;;;;5090398;28;20131;-72
2023/10/11 00:22:59;;;;;;;13.65;3.97;;;23.40;92.80;;;;;;5090112;28;20023;-72
2023/10/11 00:25:25;;;;;;;10.20;4.07;;;23.30;92.60;;;;;;5071465;28;20064;-72
2023/10/11 00:27:52;;;;;;;10.30;3.90;;;23.30;92.60;;;;;;5090119;28;20425;-72
2023/10/11 00:30:21;;;;;;;9.25;3.35;;;23.20;92.60;;;;;;5089719;28;20132;-71
2023/10/11 00:32:47;;;;;;;10.50;3.88;;;23.20;92.60;;;;;;5090127;28;20040;-71
2023/10/11 00:35:24;;;;;;;10.63;3.63;;;23.20;92.60;;;;;;5090132;28;20040;-71
2023/10/11 00:37:53;;;;;;;10.13;3.35;;;23.30;92.50;;;;;;5090157;28;20239;-71
2023/10/11 00:40:26;;;;;;;13.45;3.92;;;23.40;92.00;;;;;;5090030;28;20047;-72
2023/10/11 00:42:53;;;;;;;10.55;3.35;;;23.50;92.10;;;;;;5090130;28;20024;-72
2023/10/11 00:45:22;;;;;;;8.75;3.60;;;23.50;91.80;;;;;;5090082;28;20084;-72
2023/10/11 00:47:53;;;;;;;9.88;3.92;;;23.50;91.90;;;;;;5089948;28;20028;-71
2023/10/11 00:50:30;;;;;;;14.20;4.63;;;23.50;92.20;;;;;;5090298;28;20027;-71
2023/10/11 00:53:00;;;;;;;9.80;3.72;;;23.40;92.20;;;;;;5071519;28;20388;-71
2023/10/11 00:55:29;;;;;;;12.50;4.38;;;23.40;92.20;;;;;;5090442;28;20471;-72
2023/10/11 00:57:56;;;;;;;9.50;3.60;;;23.30;92.20;;;;;;5090018;28;20068;-71
2023/10/11 01:00:23;;;;;;;12.85;3.83;;;23.30;92.10;;;;;;5089912;28;20028;-71
2023/10/11 01:02:52;;;;;;;9.70;4.00;;;23.40;91.90;;;;;;5089890;28;20020;-72
2023/10/11 01:05:19;;;;;;;10.15;3.42;;;23.40;92.10;;;;;;5071607;28;20024;-72
2023/10/11 01:07:46;;;;;;;9.73;3.92;;;23.40;92.10;;;;;;5089972;28;20012;-71
2023/10/11 01:10:13;;;;;;;11.60;4.35;;;23.40;91.90;;;;;;5089843;28;20035;-71
2023/10/11 01:12:39;;;;;;;8.25;4.40;;;23.40;91.70;;;;;;5089917;28;20024;-72
2023/10/11 01:15:11;;;;;;;12.88;4.78;;;23.50;91.70;;;;;;5089699;28;20040;-72
2023/10/11 01:17:41;;;;;;;7.53;4.28;;;23.50;91.70;;;;;;5089977;28;20012;-72
2023/10/11 01:20:31;;;;;;;14.88;4.47;;;23.50;91.80;;;;;;5072055;28;20108;-71
2023/10/11 01:22:55;;;;;;;8.18;4.80;;;23.40;91.90;;;;;;5089344;28;20055;-71
2023/10/11 01:25:20;;;;;;;;;;;23.40;91.90;;;;;;5090412;28;20067;-71
2023/10/11 01:27:47;;;;;;;11.45;4.65;;;23.30;92.00;;;;;;5089768;28;19943;-71
2023/10/11 01:30:14;;;;;;;12.63;5.10;;;23.30;91.90;;;;;;5089364;28;20047;-71
2023/10/11 01:32:41;;;;;;;9.55;5.35;;;23.30;91.90;;;;;;5089495;28;20055;-70
2023/10/11 01:35:19;;;;;;;11.48;5.50;;;23.40;92.20;;;;;;5089903;28;20048;-70
2023/10/11 01:37:48;;;;;;;10.90;5.20;;;23.30;92.20;;;;;;5089734;28;20149;-72
2023/10/11 01:40:21;;;;;;;8.38;5.00;;;23.40;92.40;;;;;;5089822;28;20024;-71
2023/10/11 01:42:53;;;;;;;10.70;5.20;;;23.50;92.60;;;;;;5090999;28;20020;-71
2023/10/11 01:45:22;;;;;;;12.57;5.38;;;23.50;92.50;;;;;;5093014;28;20031;-71
2023/10/11 01:47:56;;;;;;;10.25;5.00;;;23.50;92.80;;;;;;5093314;28;20020;-71
2023/10/11 01:50:24;;;;;;;11.15;5.35;;;23.40;92.80;;;;;;5093451;28;20024;-72
2023/10/11 01:52:50;;;;;;;13.18;5.60;;;23.40;92.80;;;;;;5093360;28;20459;-71
2023/10/11 01:55:19;;;;;;;15.32;5.22;;;23.40;92.90;;;;;;5093388;28;20032;-71
2023/10/11 01:57:45;;;;;;;13.68;5.07;;;23.40;93.10;;;;;;5074596;28;20176;-71
2023/10/11 02:00:16;;;;;;;12.48;5.63;;;23.30;93.30;;;;;;5074423;28;20035;-71
2023/10/11 02:02:52;;;;;;;15.40;5.97;;;23.30;93.00;;;;;;5093095;28;20156;-71
2023/10/11 02:05:24;;;;;;;12.43;5.93;;;23.40;92.80;;;;;;5093243;28;20035;-72
2023/10/11 02:07:50;;;;;;;14.43;6.22;;;23.40;92.70;;;;;;5074461;28;20047;-71
2023/10/11 02:10:25;;;;;;;14.27;6.72;;;23.40;92.70;;;;;;5092862;28;20024;-71
2023/10/11 02:12:55;;;;;;;12.27;7.18;;;23.40;92.70;;;;;;5093039;28;20101;-71
2023/10/11 02:15:27;;;;;;;14.02;6.70;;;23.30;92.80;;;;;;5092600;28;20020;-71
2023/10/11 02:17:57;;;;;;;13.95;7.30;;;23.30;93.00;;;;;;5092566;28;20463;-73
2023/10/11 02:20:24;;;;;;;17.67;7.40;;;23.20;93.00;;;;;;5074139;28;20384;-71
2023/10/11 02:22:59;;;;;;;17.80;7.53;;;23.10;93.20;;;;;;5092399;28;20429;-72
2023/10/11 02:25:26;;;;;;;13.48;7.32;;;23.10;93.30;;;;;;5092759;28;20017;-73
2023/10/11 02:27:53;;;;;;;16.92;6.82;;;23.10;93.50;;;;;;5092449;28;20097;-72
2023/10/11 02:30:22;;;;;;;16.50;7.10;;;23.00;93.70;;;;;;5092433;28;20072;-71
2023/10/11 02:33:00;;;;;;;13.52;6.75;;;22.90;93.80;;;;;;5092309;28;20027;-72
2023/10/11 02:35:31;;;;;;;14.77;6.43;;;22.90;94.00;;;;;;5092278;28;20268;-71
2023/10/11 02:37:59;;;;;;;17.58;6.30;;;22.90;94.10;;;;;;5091493;28;20341;-71
2023/10/11 02:40:25;;;;;;;15.95;6.70;;;22.90;94.30;;;;;;5092022;28;20139;-71
2023/10/11 02:43:02;;;;;;;12.90;5.70;;;22.90;94.30;;;;;;5092007;28;20565;-71
2023/10/11 02:45:27;;;;;;;;;;;22.90;94.30;;;;;;5092357;28;20031;-71
2023/10/11 02:47:59;;;;;;;14.60;5.43;;;22.90;94.30;;;;;;5092004;28;19952;-71
2023/10/11 02:50:36;;;;;;;13.27;6.28;;;22.90;94.30;;;;;;5092068;28;20085;-71
2023/10/11 02:53:20;;;;;;;10.65;5.15;;;22.90;94.30;;;;;;5091808;28;20032;-71
2023/10/11 02:55:59;;;;;;;13.65;5.88;;;23.00;94.30;;;;;;5092186;28;20320;-71
2023/10/11 02:58:31;;;;;;;13.45;4.97;;;23.00;94.30;;;;;;5092317;28;20080;-71
2023/10/11 03:01:05;;;;;;;13.40;5.25;;;23.00;94.40;;;;;;5092107;28;20024;-72
2023/10/11 03:03:31;;;;;;;11.10;4.95;;;23.00;94.80;;;;;;5091914;28;20396;-71
2023/10/11 03:05:57;;;;;;;13.90;5.13;;;23.00;94.50;;;;;;5092121;28;20388;-71
2023/10/11 03:08:26;;;;;;;;;;;22.90;94.50;;;;;;5093427;28;20032;-71
2023/10/11 03:10:53;;;;;;;16.40;4.95;;;22.90;94.50;;;;;;5092658;28;20348;-72
2023/10/11 03:13:24;;;;;;;14.73;5.20;;;22.90;94.50;;;;;;5074407;28;20043;-71
2023/10/11 03:15:54;;;;;;;8.68;4.20;;;22.90;94.50;;;;;;5092970;28;20069;-71
2023/10/11 03:18:32;;;;;;;12.68;4.63;;;22.90;94.60;;;;;;5092851;28;20046;-71
2023/10/11 03:21:33;;;;;;;11.93;4.93;;;22.90;94.60;;;;;;5092490;28;20130;-71
2023/10/11 03:24:04;;;;;;;12.85;4.97;;;22.90;94.80;;;;;;5092687;28;20036;-72
2023/10/11 03:26:32;;;;;;;10.50;5.07;;;22.90;94.90;;;;;;5093142;28;20056;-71
2023/10/11 03:29:05;;;;;;;8.43;4.47;;;22.90;94.90;;;;;;5093153;28;20030;-73
2023/10/11 03:31:33;;;;;;;15.65;4.50;;;22.90;94.80;;;;;;5092839;28;20425;-72
2023/10/11 03:34:14;;;;;;;9.48;4.63;;;22.90;94.80;;;;;;5092807;28;20484;-71
2023/10/11 03:36:43;;;;;;;10.75;4.65;;;22.90;94.90;;;;;;5092892;28;20115;-72
2023/10/11 03:39:10;;;;;;;11.10;4.55;;;22.90;94.90;;;;;;5092724;28;20054;-71
2023/10/11 03:41:48;;;;;;;;;;;22.90;94.80;;;;;;5093453;28;20110;-72
2023/10/11 03:44:20;;;;;;;14.68;4.47;;;22.90;94.90;;;;;;5092924;28;19964;-72
2023/10/11 03:46:56;;;;;;;10.70;4.30;;;22.80;94.90;;;;;;5074358;28;20045;-71
2023/10/11 03:51:49;;;;;;;10.30;4.10;;;22.90;94.80;;;;;;5092615;28;20028;-72
2023/10/11 03:54:22;;;;;;;10.45;4.10;;;22.80;94.80;;;;;;5092821;28;20124;-71
2023/10/11 03:56:53;;;;;;;9.57;4.03;;;22.80;94.90;;;;;;5092754;28;20016;-71
2023/10/11 03:59:26;;;;;;;9.20;4.13;;;22.80;95.00;;;;;;5092381;28;20031;-72
2023/10/11 04:01:59;;;;;;;8.20;3.92;;;22.80;95.00;;;;;;5073866;28;20114;-71
2023/10/11 04:04:25;;;;;;;8.18;4.03;;;22.80;94.90;;;;;;5092475;28;20024;-73
2023/10/11 04:06:51;;;;;;;8.30;3.90;;;22.80;94.90;;;;;;5092232;28;20120;-71
2023/10/11 04:10:09;;;;;;;8.63;3.70;;;22.80;94.80;;;;;;5074160;28;20051;-71
2023/10/11 04:12:10;;;;;;;9.35;3.95;;;22.80;94.70;;;;;;5086266;28;20402;-71
2023/10/11 04:14:47;;;;;;;10.35;4.05;;;22.80;95.00;;;;;;5092137;28;20108;-71
2023/10/11 04:19:48;;;;;;;19.10;5.45;;;22.80;94.80;;;;;;5093078;28;20399;-72
2023/10/11 04:22:23;;;;;;;13.05;5.28;;;22.80;94.80;;;;;;5092840;28;20016;-71
2023/10/11 04:24:53;;;;;;;9.93;4.30;;;22.90;94.70;;;;;;5093423;28;20082;-72
2023/10/11 04:29:52;;;;;;;10.93;4.13;;;23.10;94.50;;;;;;5092743;28;20143;-72
2023/10/11 04:35:21;;;;;;;11.38;4.45;;;22.80;94.80;;;;;;5092761;28;20055;-72
2023/10/11 04:37:54;;;;;;;10.23;4.47;;;22.80;94.80;;;;;;5092894;28;20038;-72
2023/10/11 04:40:38;;;;;;;8.10;4.20;;;22.70;94.90;;;;;;5092897;28;20083;-72
2023/10/11 04:43:20;;;;;;;8.50;4.07;;;22.60;94.80;;;;;;5093169;28;20036;-72
2023/10/11 04:45:49;;;;;;;6.82;3.80;;;22.60;94.60;;;;;;5093034;28;20453;-71
2023/10/11 04:48:29;;;;;;;10.35;4.18;;;22.70;94.50;;;;;;5092731;28;20069;-72
2023/10/11 04:51:06;;;;;;;10.40;4.15;;;22.60;94.50;;;;;;5074713;28;20035;-71
2023/10/11 04:53:35;;;;;;;13.00;3.97;;;22.60;94.40;;;;;;5074107;28;20093;-71
2023/10/11 04:59:12;;;;;;;10.93;4.13;;;22.50;94.30;;;;;;5049875;28;20037;-71
2023/10/11 05:04:33;;;;;;;12.98;3.97;;;22.50;94.30;;;;;;5043420;28;20028;-72
2023/10/11 05:07:09;;;;;;;8.75;3.80;;;22.50;94.50;;;;;;5053360;28;20107;-71
2023/10/11 05:09:39;;;;;;;11.35;4.10;;;22.40;94.40;;;;;;5053410;28;20111;-72
2023/10/11 05:12:24;;;;;;;11.60;3.90;;;22.40;94.50;;;;;;5072094;28;20089;-71
2023/10/11 05:19:47;;;;;;;11.07;4.60;;;22.40;94.50;;;;;;5076227;28;20029;-72
2023/10/11 05:51:32;;;;;;;13.50;5.00;;;24.80;92.50;;;;;;5094705;28;20032;-72
2023/10/11 05:54:00;;;;;;;12.63;4.32;;;25.80;91.90;;;;;;5094854;28;20028;-71
2023/10/11 05:56:33;;;;;;;13.60;4.60;;;26.00;91.60;;;;;;5093806;28;20076;-73
2023/10/11 05:59:11;;;;;;;11.85;4.60;;;26.20;91.30;;;;;;5094490;28;20155;-72
2023/10/11 06:01:37;;;;;;;14.70;4.80;;;26.50;91.20;;;;;;5093758;28;20081;-73
2023/10/11 06:04:04;;;;;;;12.00;5.00;;;27.00;90.70;;;;;;5076330;28;20115;-72
2023/10/11 06:06:42;;;;;;;7.68;4.45;;;27.30;90.70;;;;;;5094405;28;20028;-72
2023/10/11 06:09:18;;;;;;;10.65;3.88;;;27.60;90.40;;;;;;5095208;28;20039;-73
2023/10/11 06:11:48;;;;;;;9.90;4.05;;;27.60;90.20;;;;;;5076038;28;20024;-72
2023/10/11 06:14:18;;;;;;;12.27;4.28;;;28.60;89.30;;;;;;5094176;28;20044;-73
2023/10/11 06:16:49;;;;;;;9.75;3.70;;;29.30;87.70;;;;;;5093872;28;20380;-72
2023/10/11 06:19:16;;;;;;;11.35;3.60;;;29.60;86.70;;;;;;5076722;28;20099;-73
2023/10/11 06:21:56;;;;;;;8.93;4.07;;;29.90;85.70;;;;;;5094153;28;20119;-71
2023/10/11 06:24:30;;;;;;;9.60;3.78;;;29.70;85.90;;;;;;5093986;28;20043;-71
2023/10/11 06:27:11;;;;;;;9.02;3.85;;;30.00;84.70;;;;;;5094152;28;20440;-73
2023/10/11 06:29:53;;;;;;;10.90;3.58;;;29.60;85.70;;;;;;5093610;28;20052;-71
2023/10/11 06:32:24;;;;;;;15.40;3.90;;;30.30;83.90;;;;;;5093683;28;20035;-73
2023/10/11 06:34:51;;;;;;;8.68;3.42;;;30.40;83.50;;;;;;5094025;28;20036;-72
2023/10/11 06:37:34;;;;;;;14.30;3.90;;;30.70;82.30;;;;;;5093993;28;20433;-72
2023/10/11 06:42:31;;;;;;;8.25;3.58;;;30.70;81.80;;;;;;5093785;28;20036;-72
2023/10/11 06:45:05;;;;;;;7.80;3.50;;;30.80;81.10;;;;;;5094019;28;20369;-72
2023/10/11 06:47:36;;;;;;;9.50;3.28;;;30.90;81.20;;;;;;5093272;28;20472;-73
2023/10/11 06:50:13;;;;;;;7.75;3.40;;;31.30;79.90;;;;;;5093963;28;20055;-72
2023/10/11 06:52:43;;;;;;;10.82;3.40;;;31.40;79.50;;;;;;5093708;28;20036;-72
2023/10/11 06:55:22;;;;;;;8.98;3.70;;;33.00;77.90;;;;;;5093599;28;20024;-72
2023/10/11 06:57:54;;;;;;;9.32;3.15;;;32.80;75.40;;;;;;5074940;28;20045;-72
2023/10/11 07:00:25;;;;;;;12.95;3.70;;;32.60;75.70;;;;;;5093052;28;20020;-73
2023/10/11 07:06:10;;;;;;;11.50;3.63;;;32.50;74.70;;;;;;5092881;28;20375;-72
2023/10/11 07:08:36;;;;;;;9.17;3.60;;;32.70;74.40;;;;;;5092926;28;20024;-72
2023/10/11 07:16:28;;;;;;;10.13;3.30;;;32.00;73.80;;;;;;5092814;28;20058;-72
2023/10/11 07:18:56;;;;;;;10.57;3.67;;;32.40;73.00;;;;;;5074446;28;20031;-71
2023/10/11 07:21:40;;;;;;;9.55;3.15;;;33.00;72.60;;;;;;5092841;28;20024;-72
2023/10/11 07:24:40;;;;;;;8.88;2.95;;;32.80;70.30;;;;;;5092599;28;20059;-73
2023/10/11 07:27:09;;;;;;;8.63;2.88;;;32.50;69.50;;;;;;5090439;28;20028;-72
2023/10/11 07:29:47;;;;;;;8.05;3.10;;;32.00;70.70;;;;;;5092832;28;20071;-71
2023/10/11 07:32:13;;;;;;;9.82;3.10;;;31.10;71.40;;;;;;5092348;28;20032;-73
2023/10/11 07:34:40;;;;;;;;;;;30.70;71.40;;;;;;5108563;28;20032;-71
2023/10/11 07:37:06;;;;;;;7.50;3.00;;;30.20;71.80;;;;;;5074624;28;19911;-71
2023/10/11 07:39:36;;;;;;;7.43;3.00;;;30.20;71.90;;;;;;5091134;28;20079;-71
2023/10/11 07:42:18;;;;;;;13.70;3.13;;;30.10;72.10;;;;;;5092377;28;20039;-73
2023/10/11 07:44:50;;;;;;;15.95;4.40;;;30.10;71.80;;;;;;5074263;28;20073;-72
2023/10/11 07:47:18;;;;;;;9.27;3.47;;;30.50;71.30;;;;;;5092332;28;20024;-72
2023/10/11 07:49:49;;;;;;;7.85;3.08;;;30.50;71.30;;;;;;5091237;28;20048;-71
2023/10/11 07:52:19;;;;;;;6.50;3.00;;;30.80;70.50;;;;;;5091420;28;20031;-72
2023/10/11 07:54:45;;;;;;;8.05;2.75;;;30.60;69.30;;;;;;5091212;28;20051;-72
2023/10/11 07:57:15;;;;;;;;;;;30.60;68.80;;;;;;5091881;28;20103;-71
2023/10/11 07:59:47;;;;;;;8.45;2.90;;;30.60;68.80;;;;;;5091229;28;19908;-70
2023/10/11 08:02:41;;;;;;;6.40;2.80;;;30.10;68.70;;;;;;5072776;28;20504;-72
2023/10/11 08:05:12;;;;;;;7.38;2.90;;;30.00;69.00;;;;;;5073111;28;20360;-73
2023/10/11 08:07:40;;;;;;;11.50;3.70;;;30.00;69.60;;;;;;5073130;28;20039;-72
2023/10/11 08:10:29;;;;;;;12.27;3.15;;;30.00;69.10;;;;;;5091160;28;20028;-74
2023/10/11 08:12:59;;;;;;;8.77;3.17;;;30.20;68.60;;;;;;5076289;28;20108;-73
2023/10/11 08:15:25;;;;;;;8.73;3.03;;;30.20;67.80;;;;;;5073828;28;20032;-73
2023/10/11 08:17:52;;;;;;;8.40;2.97;;;30.10;67.70;;;;;;5092033;28;20039;-72
2023/10/11 08:20:19;;;;;;;11.00;3.00;;;30.30;67.60;;;;;;5092299;28;20032;-72
2023/10/11 08:22:48;;;;;;;7.72;2.90;;;30.30;66.90;;;;;;5092272;28;20413;-71
2023/10/11 08:25:14;;;;;;;9.27;2.97;;;30.20;67.10;;;;;;5091569;28;20433;-71
2023/10/11 08:27:41;;;;;;;6.60;2.70;;;30.00;66.60;;;;;;5091746;28;20024;-72
2023/10/11 08:32:43;;;;;;;9.13;2.95;;;29.40;67.70;;;;;;5091302;28;20115;-71
2023/10/11 08:35:21;;;;;;;6.70;3.08;;;29.60;67.90;;;;;;5091458;28;20028;-71
2023/10/11 08:37:52;;;;;;;9.65;2.95;;;29.50;67.80;;;;;;5091214;28;20032;-72
2023/10/11 08:40:23;;;;;;;9.45;2.88;;;29.50;68.00;;;;;;5091411;28;20097;-74
2023/10/11 08:42:53;;;;;;;8.07;2.78;;;29.90;68.50;;;;;;5091684;28;20016;-71
2023/10/11 08:45:29;;;;;;;6.10;2.90;;;30.20;67.60;;;;;;5091079;28;20073;-73
2023/10/11 08:47:57;;;;;;;6.28;2.67;;;30.30;68.10;;;;;;5090891;28;20036;-73
2023/10/11 08:50:31;;;;;;;10.38;3.20;;;30.10;67.70;;;;;;5072669;28;20024;-72
2023/10/11 08:52:57;;;;;;;14.80;4.03;;;30.40;68.00;;;;;;5094375;28;20051;-72
2023/10/11 08:55:24;;;;;;;12.02;4.80;;;30.60;80.50;;;;;;5095137;28;20028;-72
2023/10/11 08:57:53;;;;;;;16.17;4.35;;;30.60;92.70;;;;;;5094911;28;20035;-72
2023/10/11 09:00:33;;;;;;;12.65;3.85;;;30.40;95.00;;;;;;5111164;28;20549;-72
2023/10/11 09:03:19;;;;;;;17.13;3.85;;;30.30;95.90;;;;;;5095328;28;20495;-72
2023/10/11 09:05:47;;;;;;;9.57;3.33;;;30.20;96.60;;;;;;5095815;28;20016;-72
2023/10/11 09:08:27;;;;;;;17.67;3.83;;;30.30;96.70;;;;;;5095182;28;20040;-71
2023/10/11 09:11:28;;;;;;;11.38;5.03;;;30.20;96.80;;;;;;5095594;28;20020;-72
2023/10/11 09:14:11;;;;;;;22.67;3.92;;;30.20;96.60;;;;;;5095234;28;20039;-72
2023/10/11 09:16:37;;;;;;;12.60;3.72;;;30.20;96.60;;;;;;5094820;28;20080;-71
2023/10/11 09:19:09;;;;;;;;;;;30.30;97.00;;;;;;5095414;28;20046;-71
2023/10/11 09:21:36;;;;;;;10.65;3.33;;;30.10;97.00;;;;;;5094728;28;19903;-72
2023/10/11 09:24:04;;;;;;;9.68;3.55;;;30.10;96.50;;;;;;5095116;28;20509;-72
2023/10/11 09:26:37;;;;;;;15.82;3.58;;;30.10;96.20;;;;;;5094497;28;20027;-72
2023/10/11 09:29:16;;;;;;;15.15;3.45;;;30.00;96.70;;;;;;5094643;28;20028;-72
2023/10/11 09:31:57;;;;;;;10.63;3.13;;;30.00;96.40;;;;;;5094359;28;20036;-71
2023/10/11 09:34:29;;;;;;;8.82;3.80;;;29.80;96.50;;;;;;5094729;28;20028;-72
2023/10/11 09:37:00;;;;;;;12.63;4.30;;;29.70;96.70;;;;;;5094706;28;20531;-73
2023/10/11 09:39:29;;;;;;;12.15;3.72;;;29.80;96.30;;;;;;5094393;28;20088;-73
2023/10/11 09:42:04;;;;;;;12.98;3.97;;;29.70;96.50;;;;;;5094701;28;20105;-72
2023/10/11 09:44:39;;;;;;;11.95;3.60;;;29.80;96.50;;;;;;5076201;28;20028;-73
2023/10/11 09:47:31;;;;;;;11.70;3.63;;;29.60;96.40;;;;;;5075798;28;20031;-72
2023/10/11 09:50:00;;;;;;;16.13;4.00;;;29.70;96.40;;;;;;5094139;28;20036;-71
2023/10/11 09:52:29;;;;;;;18.52;4.00;;;29.50;97.10;;;;;;5093991;28;20451;-73
2023/10/11 09:54:56;;;;;;;9.27;3.42;;;29.60;97.80;;;;;;5094211;28;20039;-72
2023/10/11 09:57:50;;;;;;;9.77;3.42;;;29.40;97.90;;;;;;5093876;28;20032;-72
2023/10/11 10:00:41;;;;;;;16.15;3.80;;;29.30;97.80;;;;;;5094142;28;20027;-71
2023/10/11 10:03:13;;;;;;;13.60;4.20;;;29.60;97.60;;;;;;5092333;28;20023;-73
2023/10/11 10:06:21;;;;;;;13.07;3.78;;;29.50;96.90;;;;;;5093533;28;20028;-71
2023/10/11 10:09:23;;;;;;;13.45;3.83;;;29.50;97.30;;;;;;5075179;28;20085;-73
2023/10/11 10:12:11;;;;;;;12.25;3.58;;;29.80;98.00;;;;;;5075389;28;20349;-72
2023/10/11 10:14:38;;;;;;;13.50;3.40;;;29.40;98.40;;;;;;5093868;28;20196;-71
2023/10/11 10:17:13;;;;;;;9.90;3.20;;;29.40;98.00;;;;;;5093320;28;20381;-70
2023/10/11 10:19:43;;;;;;;12.95;3.58;;;29.30;96.60;;;;;;5094391;28;20150;-72
2023/10/11 10:22:16;;;;;;;12.93;3.97;;;29.30;97.20;;;;;;5075463;28;20087;-73
2023/10/11 10:24:44;;;;;;;17.17;4.10;;;29.10;97.80;;;;;;5075479;28;20119;-72
2023/10/11 10:27:33;;;;;;;18.60;3.70;;;29.10;97.60;;;;;;5093990;28;20161;-73
2023/10/11 10:30:06;;;;;;;14.77;3.80;;;29.50;96.20;;;;;;5093813;28;20020;-72
2023/10/11 10:32:33;;;;;;;16.13;3.80;;;29.60;95.30;;;;;;5093618;28;20412;-71
2023/10/11 10:35:20;;;;;;;9.93;4.15;;;29.60;94.90;;;;;;5093618;28;20097;-72
2023/10/11 10:37:56;;;;;;;11.68;3.53;;;29.80;95.50;;;;;;5093845;28;20503;-72
2023/10/11 10:40:25;;;;;;;;;;;29.30;95.50;;;;;;5094180;28;20383;-71
2023/10/11 10:43:14;;;;;;;19.40;4.10;;;29.20;94.40;;;;;;5094224;28;20240;-73
2023/10/11 10:45:40;;;;;;;14.82;4.05;;;29.30;94.50;;;;;;5094362;28;20024;-71
2023/10/11 10:48:23;;;;;;;8.80;3.65;;;29.40;93.60;;;;;;5075126;28;20110;-71
2023/10/11 10:51:01;;;;;;;9.15;3.30;;;29.50;93.80;;;;;;5075452;28;20059;-72
2023/10/11 10:53:53;;;;;;;8.40;3.47;;;29.50;92.00;;;;;;5093594;28;20152;-72
2023/10/11 10:56:26;;;;;;;10.32;3.20;;;29.40;93.70;;;;;;5082762;28;20043;-72
2023/10/11 10:59:11;;;;;;;10.40;3.33;;;29.60;93.50;;;;;;5093541;28;20444;-72
2023/10/11 11:01:44;;;;;;;14.50;3.58;;;29.50;93.00;;;;;;5075039;28;20563;-73
2023/10/11 11:04:12;;;;;;;12.00;3.60;;;29.50;92.20;;;;;;5075203;28;20027;-71
2023/10/11 11:06:38;;;;;;;10.60;3.50;;;29.20;92.60;;;;;;5093202;28;20134;-71
2023/10/11 11:09:13;;;;;;;10.43;3.50;;;29.40;92.70;;;;;;5093629;28;20059;-72
2023/10/11 11:11:43;;;;;;;10.18;3.50;;;29.70;92.40;;;;;;5093742;28;20062;-71
2023/10/11 11:14:11;;;;;;;26.70;3.97;;;29.80;91.70;;;;;;5074719;28;20039;-72
2023/10/11 11:16:41;;;;;;;11.07;3.47;;;29.50;90.90;;;;;;5093524;28;20198;-71
2023/10/11 11:19:18;;;;;;;11.50;3.58;;;29.40;90.90;;;;;;5092994;28;20035;-71
2023/10/11 11:21:45;;;;;;;13.02;3.97;;;29.40;91.20;;;;;;5093063;28;20110;-71
2023/10/11 11:24:27;;;;;;;14.73;3.80;;;29.40;91.60;;;;;;5093211;28;20054;-71
2023/10/11 11:26:54;;;;;;;13.88;3.70;;;29.70;91.70;;;;;;5093018;28;20035;-71
2023/10/11 11:29:33;;;;;;;16.75;3.80;;;29.60;92.70;;;;;;5092672;28;20499;-71
2023/10/11 11:32:14;;;;;;;16.70;4.22;;;29.80;93.00;;;;;;5074173;28;20024;-71
2023/10/11 11:35:10;;;;;;;39.20;25.33;;;29.70;92.00;;;;;;5092968;28;20035;-72
2023/10/11 11:37:40;;;;;;;16.70;7.53;;;29.60;91.90;;;;;;5093002;28;20024;-71
2023/10/11 11:40:24;;;;;;;13.48;5.30;;;29.60;91.60;;;;;;5093626;28;20119;-72
2023/10/11 11:42:50;;;;;;;13.73;6.82;;;29.70;91.60;;;;;;5093087;28;20020;-72
2023/10/11 11:45:18;;;;;;;9.90;4.28;;;30.10;91.60;;;;;;5092776;28;20052;-72
2023/10/11 11:47:55;;;;;;;15.65;4.00;;;30.10;91.40;;;;;;5074103;28;20073;-74
2023/10/11 11:50:34;;;;;;;10.38;3.40;;;30.00;92.10;;;;;;5092264;28;20093;-72
2023/10/11 11:53:01;;;;;;;11.85;3.85;;;29.90;92.20;;;;;;5092602;28;20043;-72
2023/10/11 11:55:34;;;;;;;10.02;3.88;;;30.10;92.20;;;;;;5074442;28;20118;-72
2023/10/11 11:58:10;;;;;;;13.43;3.83;;;30.00;92.20;;;;;;5092900;28;20149;-72
2023/10/11 12:00:40;;;;;;;11.75;3.17;;;30.10;92.10;;;;;;5074468;28;20066;-72
2023/10/11 12:03:10;;;;;;;13.23;3.22;;;30.20;91.70;;;;;;5092207;28;20132;-74
2023/10/11 12:05:42;;;;;;;11.35;3.35;;;29.90;91.40;;;;;;5074428;28;20517;-71
2023/10/11 12:08:31;;;;;;;10.05;3.22;;;30.00;91.00;;;;;;5074705;28;20503;-71
2023/10/11 12:10:57;;;;;;;16.00;3.55;;;29.90;91.80;;;;;;5093202;28;20024;-71
2023/10/11 12:13:23;;;;;;;9.95;3.50;;;30.10;91.40;;;;;;5093432;28;20060;-71
2023/10/11 12:15:56;;;;;;;9.25;3.40;;;30.00;91.50;;;;;;5093612;28;20077;-71
2023/10/11 12:18:35;;;;;;;16.35;3.95;;;30.00;91.70;;;;;;5093670;28;20030;-73
2023/10/11 12:21:10;;;;;;;13.25;3.80;;;30.00;91.40;;;;;;5093683;28;20032;-72
2023/10/11 12:23:44;;;;;;;12.40;3.55;;;30.20;90.80;;;;;;5075014;28;20084;-72
2023/10/11 12:26:10;;;;;;;18.70;4.18;;;30.00;91.00;;;;;;5092553;28;20036;-71
2023/10/11 12:28:37;;;;;;;15.30;3.67;;;30.20;90.40;;;;;;5093154;28;20060;-71
2023/10/11 12:31:04;;;;;;;12.80;3.72;;;30.30;90.20;;;;;;5093600;28;20468;-72
2023/10/11 12:33:30;;;;;;;15.70;3.58;;;30.10;90.00;;;;;;5093024;28;20039;-71
2023/10/11 12:35:57;;;;;;;14.27;3.65;;;29.80;90.60;;;;;;5093078;28;20028;-72
2023/10/11 12:38:23;;;;;;;31.05;4.45;;;30.00;90.80;;;;;;5092863;28;20067;-71
2023/10/11 12:40:49;;;;;;;9.85;3.55;;;29.90;90.50;;;;;;5093157;28;20461;-72
2023/10/11 12:43:22;;;;;;;18.20;4.07;;;29.70;89.60;;;;;;5093535;28;20027;-72
2023/10/11 12:45:48;;;;;;;23.55;5.57;;;29.90;89.80;;;;;;5093299;28;20024;-72
2023/10/11 12:48:15;;;;;;;37.55;5.40;;;30.00;88.90;;;;;;5092506;28;20016;-72
2023/10/11 12:50:41;;;;;;;17.77;4.28;;;30.00;88.10;;;;;;5092629;28;20182;-72
2023/10/11 12:53:11;;;;;;;26.00;5.18;;;30.00;88.80;;;;;;5092818;28;20028;-72
2023/10/11 12:55:49;;;;;;;18.17;4.28;;;29.40;90.00;;;;;;5074492;28;20058;-73
2023/10/11 12:58:18;;;;;;;8.80;3.20;;;29.60;88.90;;;;;;5092647;28;20028;-72
2023/10/11 13:00:53;;;;;;;18.60;4.03;;;29.80;87.40;;;;;;5074470;28;20039;-72
2023/10/11 13:03:29;;;;;;;14.95;3.58;;;29.80;88.00;;;;;;5074286;28;20055;-72
2023/10/11 13:05:56;;;;;;;14.93;3.58;;;29.70;89.30;;;;;;5092687;28;20020;-70
2023/10/11 13:08:28;;;;;;;12.95;3.53;;;30.00;89.60;;;;;;5092284;28;20028;-72
2023/10/11 13:10:54;;;;;;;19.23;3.67;;;30.00;89.10;;;;;;5092916;28;20027;-71
2023/10/11 13:13:23;;;;;;;15.18;4.03;;;29.70;89.00;;;;;;5092108;28;20024;-71
2023/10/11 13:15:58;;;;;;;17.25;3.70;;;29.60;89.10;;;;;;5092154;28;20032;-71
2023/10/11 13:18:28;;;;;;;12.50;3.70;;;29.70;89.20;;;;;;5092369;28;20024;-71
2023/10/11 13:20:55;;;;;;;8.57;3.25;;;29.70;89.70;;;;;;5092859;28;20551;-71
2023/10/11 13:23:31;;;;;;;12.85;3.63;;;29.80;90.40;;;;;;5092445;28;20072;-72
2023/10/11 13:25:59;;;;;;;21.88;3.78;;;29.80;89.90;;;;;;5074245;28;20029;-71
2023/10/11 13:28:27;;;;;;;15.75;3.45;;;29.70;90.40;;;;;;5092402;28;20027;-72
2023/10/11 13:30:56;;;;;;;11.57;3.30;;;29.80;90.90;;;;;;5092730;28;20036;-71
2023/10/11 13:33:22;;;;;;;19.15;3.97;;;29.60;91.70;;;;;;5091722;28;20032;-71
2023/10/11 13:35:49;;;;;;;14.85;3.70;;;29.40;92.50;;;;;;5092831;28;20028;-71
2023/10/11 13:38:20;;;;;;;13.98;3.90;;;29.50;92.50;;;;;;5092661;28;20048;-71
2023/10/11 13:40:47;;;;;;;17.10;3.83;;;29.50;92.90;;;;;;5096586;28;20047;-71
2023/10/11 13:43:13;;;;;;;13.30;3.60;;;29.50;92.60;;;;;;5096369;28;20035;-71
2023/10/11 13:45:45;;;;;;;10.63;3.58;;;29.40;92.10;;;;;;5077652;28;20028;-71
2023/10/11 13:48:11;;;;;;;10.27;3.50;;;29.50;92.40;;;;;;5077274;28;20487;-71
2023/10/11 13:50:41;;;;;;;13.48;3.53;;;29.40;92.40;;;;;;5077237;28;20380;-71
2023/10/11 13:53:13;;;;;;;14.80;3.72;;;29.40;91.70;;;;;;5095361;28;20479;-70
2023/10/11 13:55:40;;;;;;;13.02;3.33;;;29.40;91.30;;;;;;5096352;28;20027;-71
2023/10/11 13:58:10;;;;;;;17.83;3.70;;;29.40;91.30;;;;;;5077364;28;20366;-71
2023/10/11 14:05:49;;;;;;;12.15;3.45;;;29.40;91.30;;;;;;5095356;28;20073;-70
2023/10/11 14:08:25;;;;;;;11.82;3.60;;;29.20;91.50;;;;;;5095587;28;20188;-73
2023/10/11 14:10:51;;;;;;;8.50;3.17;;;29.20;91.10;;;;;;5095954;28;20024;-72
2023/10/11 14:13:24;;;;;;;13.27;3.58;;;28.90;91.90;;;;;;5095773;28;20024;-72
2023/10/11 14:15:51;;;;;;;11.90;3.38;;;28.80;92.50;;;;;;5095934;28;20056;-71
2023/10/11 14:18:19;;;;;;;16.15;3.45;;;28.90;92.60;;;;;;5095123;28;20028;-71
2023/10/11 14:20:58;;;;;;;11.85;3.50;;;29.00;93.60;;;;;;5095295;28;20020;-72